Current News

By popular demand, I have restored the previous template "type" back to the website. This is a major work in progress... So don't complain when something is broken.

I did put a link to the earlier WeeWX version that presents much more data at the top right corner of the page.
-- Jeffrey

Current Weather Cam

Current Radar Loop

Nearby METAR Reports

 

KSJC - San Jose, California, USA
Distance from station: NE 9mi, 14km
Updated: Thu, 15-Nov-2018 5:17pm CST
Haze, Overcast
Haze, Overcast
 Wind from NNW
Wind: NNW 5 mph , 7 km/h
Temperature: 64°F , 18°C
Dew Point: 30°F , -1°C
Humidity: 28%
Barometer: 30.07 inHg , 1018.3 hPa
Summary: Haze
Clouds: Overcast
Visibility: 1 3/4 miles , 2.8 km
Cloud details: Few Clouds 100 ft
Mostly cloudy 2000 ft
Overcast 8000 ft
2018/11/15 23:17 KSJC 152317Z 33004KT 1 3/4SM HZ FEW001 BKN020 OVC080 18/M01 A3007 RMK AO2 VIS SE 2 1/2 FU FEW001 FU BKN020 T01831011
KNUQ - Moffett Nas/Mtn, California, USA
Distance from station: N 9mi, 14km
Updated: Thu, 15-Nov-2018 4:56pm CST
Smoke, Overcast
Smoke, Overcast
 Wind from N
Wind: N 5 mph , 7 km/h
Temperature: 63°F , 17°C
Dew Point: 36°F , 2°C
Humidity: 37%
Barometer: 30.08 inHg , 1018.6 hPa
Summary: Smoke
Clouds: Overcast
Visibility: 1 1/2 miles , 2.4 km
Cloud details: Overcast 1200 ft
2018/11/15 22:56 KNUQ 152256Z 36004KT 1 1/2SM FU OVC012 17/02 A3008 RMK AO2 SLP188 T01720017
 
KPAO - Palo Alto, California, USA
Distance from station: NNW 14mi, 23km
Updated: Thu, 15-Nov-2018 4:47pm CST
Haze, Smoke, Clear
Haze, Smoke, Clear
 Wind from N
Wind: N 9 mph , 15 km/h
Temperature: 61°F , 16°C
Dew Point: 48°F , 9°C
Humidity: 63%
Barometer: 30.09 inHg , 1019 hPa
Summary: Haze, Smoke
Clouds: Clear
Visibility: 1 1/2 miles , 2.4 km
2018/11/15 22:47 KPAO 152247Z 35008KT 1 1/2SM HZ FU SKC 16/09 A3009
KRHV - San Jose/Reid, California, USA
Distance from station: ENE 12mi, 19km
Updated: Thu, 15-Nov-2018 4:47pm CST
Smoke, Mostly cloudy
Smoke, Mostly cloudy
 Wind from calm
Wind: Calm
Temperature: 68°F , 20°C
Dew Point: 34°F , 1°C
Humidity: 28%
Barometer: 30.06 inHg , 1017.9 hPa
Summary: Smoke
Clouds: Mostly cloudy
Visibility: 2 miles , 3 km
Cloud details: Mostly cloudy 2000 ft
2018/11/15 22:47 KRHV 152247Z 00000KT 2SM FU BKN020 20/01 A3006
 
KOAK - Oakland, California, USA
Distance from station: NNW 31mi, 50km
Updated: Thu, 15-Nov-2018 4:53pm CST
Haze, Overcast
Haze, Overcast
 Wind from WNW
Wind: WNW 8 mph , 13 km/h
Temperature: 63°F , 17°C
Dew Point: 43°F , 6°C
Humidity: 49%
Barometer: 30.08 inHg , 1018.6 hPa
Summary: Haze
Clouds: Overcast
Visibility: 1 mile , 2 km
Cloud details: Overcast 1400 ft
2018/11/15 22:53 KOAK 152253Z 30007KT 1SM HZ OVC014 17/06 A3008 RMK AO2 TWR VIS 2 1/2 SLP187 FU OVC014 T01670056
KSQL - San Carlos Airpo, California, USA
Distance from station: NW 21mi, 34km
Updated: Thu, 15-Nov-2018 4:52pm CST
Smoke, Haze, Clear
Smoke, Haze, Clear
 Wind from varies
Wind: varies 3 mph , 6 km/h
Temperature: 61°F , 16°C
Dew Point: 45°F , 7°C
Humidity: 55%
Barometer: 30.08 inHg , 1018.6 hPa
Summary: Smoke, Haze
Clouds: Clear
Visibility: 1 3/4 miles , 2.8 km
2018/11/15 22:52 KSQL 152252Z VRB03KT 1 3/4SM FU HZ SKC 16/07 A3008
 
KSFO - San Francisco, California, USA
Distance from station: NW 30mi, 49km
Updated: Thu, 15-Nov-2018 4:56pm CST
Smoke, Mostly cloudy
Smoke, Mostly cloudy
 Wind from calm
Wind: Calm
Temperature: 63°F , 17°C
Dew Point: 37°F , 3°C
Humidity: 39%
Barometer: 30.07 inHg , 1018.3 hPa
Summary: Smoke
Clouds: Mostly cloudy
Visibility: 1 1/2 miles , 2.4 km
Cloud details: Partly cloudy 500 ft
Mostly cloudy 1500 ft
2018/11/15 22:56 KSFO 152256Z 00000KT 1 1/2SM FU SCT005 BKN015 17/03 A3007 RMK AO2 SLP183 T01670028
KE16 - San Martin, California, USA
Distance from station: ESE 27mi, 43km
Updated: Thu, 15-Nov-2018 5:10pm CST
Haze, Clear
Haze, Clear
 Wind from NNW
Wind: NNW 9 mph , 15 km/h
Temperature: 68°F , 20°C
Dew Point: 21°F , -6°C
Humidity: 17%
Barometer: 30.07 inHg , 1018.3 hPa
Summary: Haze
Clouds: Clear
Visibility: 3 miles , 5 km
2018/11/15 23:10 KE16 152310Z AUTO 33008KT 3SM HZ CLR 20/M06 A3007 RMK AO2
 
KWVI - Watsonville, California, USA
Distance from station: SSE 27mi, 44km
Updated: Thu, 15-Nov-2018 4:53pm CST
Haze, Clear
Haze, Clear
 Wind from S
Wind: S 3 mph , 6 km/h
Temperature: 73°F , 23°C
Dew Point: 30°F , -1°C
Humidity: 20%
Barometer: 30.05 inHg , 1017.6 hPa
Summary: Haze
Clouds: Clear
Visibility: 6 miles , 10 km
2018/11/15 22:53 KWVI 152253Z AUTO 18003KT 6SM HZ CLR 23/M01 A3005 RMK AO2 SLP175 T02331006
KHAF - Half Moon Bay, California, USA
Distance from station: WNW 31mi, 50km
Updated: Thu, 15-Nov-2018 5:20pm CST
Haze, Clear
Haze, Clear
 Wind from calm
Wind: Calm
Temperature: 59°F , 15°C
Dew Point: 43°F , 6°C
Humidity: 55%
Barometer: 30.07 inHg , 1018.3 hPa
Summary: Haze
Clouds: Clear
Visibility: 3 miles , 5 km
2018/11/15 23:20 KHAF 152320Z AUTO 00000KT 3SM HZ CLR 15/06 A3007 RMK AO2
 
KHWD - Hayward, California, USA
Distance from station: N 28mi, 44km
Updated: Thu, 15-Nov-2018 4:54pm CST
Haze, Smoke, Clear
Haze, Smoke, Clear
 Wind from WNW
Wind: WNW 7 mph , 11 km/h
Temperature: 63°F , 17°C
Dew Point: 39°F , 4°C
Humidity: 42%
Barometer: 30.08 inHg , 1018.6 hPa
Summary: Haze, Smoke
Clouds: Clear
Visibility: 1 mile , 2 km
2018/11/15 22:54 KHWD 152254Z 30006KT 1SM HZ FU CLR 17/04 A3008 RMK AO2 SLP194 T01670044
KLVK - Livermore, California, USA
Distance from station: NNE 31mi, 51km
Updated: Thu, 15-Nov-2018 4:53pm CST
Haze, Smoke, Clear
Haze, Smoke, Clear
 Wind from ENE
Wind: ENE 10 mph , 17 km/h
Temperature: 64°F , 18°C
Dew Point: 23°F , -5°C
Humidity: 21%
Barometer: 30.07 inHg , 1018.3 hPa
Summary: Haze, Smoke
Clouds: Clear
Visibility: 1 1/2 miles , 2.4 km
2018/11/15 22:53 KLVK 152253Z 06009KT 1 1/2SM HZ FU CLR 18/M05 A3007 RMK AO2 SLP184 T01831050